sensor_id;sensor_type;location;lat;lon;timestamp;temperature;humidity
24224;DHT22;12359;49.716;9.212;2023-04-26T00:02:11;4.10;1.00
24224;DHT22;12359;49.716;9.212;2023-04-26T00:04:39;4.10;1.00
24224;DHT22;12359;49.716;9.212;2023-04-26T00:07:05;4.10;1.00
24224;DHT22;12359;49.716;9.212;2023-04-26T00:09:32;4.10;1.00
24224;DHT22;12359;49.716;9.212;2023-04-26T00:11:58;4.10;1.00
24224;DHT22;12359;49.716;9.212;2023-04-26T00:14:23;4.10;1.00
24224;DHT22;12359;49.716;9.212;2023-04-26T00:16:49;4.00;1.00
24224;DHT22;12359;49.716;9.212;2023-04-26T00:19:15;4.00;1.00
24224;DHT22;12359;49.716;9.212;2023-04-26T00:21:42;3.90;1.00
24224;DHT22;12359;49.716;9.212;2023-04-26T00:24:07;3.90;1.00
24224;DHT22;12359;49.716;9.212;2023-04-26T00:26:33;3.80;1.00
24224;DHT22;12359;49.716;9.212;2023-04-26T00:29:00;3.80;1.00
24224;DHT22;12359;49.716;9.212;2023-04-26T00:31:26;3.70;1.00
24224;DHT22;12359;49.716;9.212;2023-04-26T00:33:52;3.70;1.00
24224;DHT22;12359;49.716;9.212;2023-04-26T00:36:17;3.60;1.00
24224;DHT22;12359;49.716;9.212;2023-04-26T00:38:44;3.60;1.00
24224;DHT22;12359;49.716;9.212;2023-04-26T00:41:11;3.60;1.00
24224;DHT22;12359;49.716;9.212;2023-04-26T00:43:36;3.50;2.30
24224;DHT22;12359;49.716;9.212;2023-04-26T00:46:03;3.50;2.30
24224;DHT22;12359;49.716;9.212;2023-04-26T00:48:29;3.50;6.00
24224;DHT22;12359;49.716;9.212;2023-04-26T00:50:55;3.40;5.00
24224;DHT22;12359;49.716;9.212;2023-04-26T00:53:21;3.40;7.60
24224;DHT22;12359;49.716;9.212;2023-04-26T00:55:48;3.40;9.80
24224;DHT22;12359;49.716;9.212;2023-04-26T00:58:16;3.40;5.50
24224;DHT22;12359;49.716;9.212;2023-04-26T01:00:42;3.30;5.20
24224;DHT22;12359;49.716;9.212;2023-04-26T01:03:11;3.30;9.80
24224;DHT22;12359;49.716;9.212;2023-04-26T01:05:37;3.20;11.80
24224;DHT22;12359;49.716;9.212;2023-04-26T01:08:03;3.10;15.30
24224;DHT22;12359;49.716;9.212;2023-04-26T01:10:31;3.10;17.70
24224;DHT22;12359;49.716;9.212;2023-04-26T01:12:59;3.10;14.00
24224;DHT22;12359;49.716;9.212;2023-04-26T01:15:25;3.10;16.90
24224;DHT22;12359;49.716;9.212;2023-04-26T01:17:52;3.00;19.30
24224;DHT22;12359;49.716;9.212;2023-04-26T01:20:19;3.00;19.80
24224;DHT22;12359;49.716;9.212;2023-04-26T01:22:45;3.00;20.90
24224;DHT22;12359;49.716;9.212;2023-04-26T01:25:11;3.00;22.00
24224;DHT22;12359;49.716;9.212;2023-04-26T01:27:37;3.00;22.80
24224;DHT22;12359;49.716;9.212;2023-04-26T01:30:04;2.90;22.00
24224;DHT22;12359;49.716;9.212;2023-04-26T01:32:29;2.90;23.20
24224;DHT22;12359;49.716;9.212;2023-04-26T01:34:55;2.90;24.50
24224;DHT22;12359;49.716;9.212;2023-04-26T01:37:21;2.90;22.50
24224;DHT22;12359;49.716;9.212;2023-04-26T01:39:47;2.90;26.40
24224;DHT22;12359;49.716;9.212;2023-04-26T01:42:12;2.80;26.20
24224;DHT22;12359;49.716;9.212;2023-04-26T01:44:38;2.80;26.20
24224;DHT22;12359;49.716;9.212;2023-04-26T01:47:04;2.80;27.60
24224;DHT22;12359;49.716;9.212;2023-04-26T01:49:30;2.70;27.50
24224;DHT22;12359;49.716;9.212;2023-04-26T01:51:57;2.70;26.10
24224;DHT22;12359;49.716;9.212;2023-04-26T01:54:23;2.70;28.90
24224;DHT22;12359;49.716;9.212;2023-04-26T01:56:49;2.70;28.70
24224;DHT22;12359;49.716;9.212;2023-04-26T01:59:15;2.70;25.10
24224;DHT22;12359;49.716;9.212;2023-04-26T02:01:41;2.70;23.90
24224;DHT22;12359;49.716;9.212;2023-04-26T02:04:08;2.60;22.40
24224;DHT22;12359;49.716;9.212;2023-04-26T02:06:33;2.60;22.80
24224;DHT22;12359;49.716;9.212;2023-04-26T02:08:59;2.60;26.40
24224;DHT22;12359;49.716;9.212;2023-04-26T02:11:25;2.50;28.00
24224;DHT22;12359;49.716;9.212;2023-04-26T02:13:51;2.50;31.10
24224;DHT22;12359;49.716;9.212;2023-04-26T02:16:18;2.50;30.90
24224;DHT22;12359;49.716;9.212;2023-04-26T02:18:43;2.50;32.80
24224;DHT22;12359;49.716;9.212;2023-04-26T02:21:10;2.40;28.20
24224;DHT22;12359;49.716;9.212;2023-04-26T02:23:36;2.40;32.50
24224;DHT22;12359;49.716;9.212;2023-04-26T02:26:02;2.30;34.10
24224;DHT22;12359;49.716;9.212;2023-04-26T02:28:29;2.30;32.10
24224;DHT22;12359;49.716;9.212;2023-04-26T02:30:54;2.30;33.40
24224;DHT22;12359;49.716;9.212;2023-04-26T02:33:23;2.20;32.40
24224;DHT22;12359;49.716;9.212;2023-04-26T02:35:49;2.20;33.50
24224;DHT22;12359;49.716;9.212;2023-04-26T02:38:16;2.20;34.60
24224;DHT22;12359;49.716;9.212;2023-04-26T02:40:41;2.20;37.20
24224;DHT22;12359;49.716;9.212;2023-04-26T02:43:07;2.20;35.90
24224;DHT22;12359;49.716;9.212;2023-04-26T02:45:40;2.20;37.60
24224;DHT22;12359;49.716;9.212;2023-04-26T02:48:06;2.20;38.60
24224;DHT22;12359;49.716;9.212;2023-04-26T02:50:32;2.20;37.10
24224;DHT22;12359;49.716;9.212;2023-04-26T02:52:57;2.10;41.40
24224;DHT22;12359;49.716;9.212;2023-04-26T02:55:23;2.00;42.90
24224;DHT22;12359;49.716;9.212;2023-04-26T02:57:49;2.00;42.70
24224;DHT22;12359;49.716;9.212;2023-04-26T03:00:15;2.00;42.70
24224;DHT22;12359;49.716;9.212;2023-04-26T03:02:40;2.10;42.60
24224;DHT22;12359;49.716;9.212;2023-04-26T03:05:06;2.10;40.30
24224;DHT22;12359;49.716;9.212;2023-04-26T03:07:33;2.10;40.00
24224;DHT22;12359;49.716;9.212;2023-04-26T03:09:59;2.00;35.00
24224;DHT22;12359;49.716;9.212;2023-04-26T03:12:26;2.00;41.60
24224;DHT22;12359;49.716;9.212;2023-04-26T03:14:51;2.00;43.90
24224;DHT22;12359;49.716;9.212;2023-04-26T03:17:17;1.90;43.80
24224;DHT22;12359;49.716;9.212;2023-04-26T03:19:43;1.90;45.00
24224;DHT22;12359;49.716;9.212;2023-04-26T03:22:09;2.00;45.00
24224;DHT22;12359;49.716;9.212;2023-04-26T03:24:35;2.00;42.80
24224;DHT22;12359;49.716;9.212;2023-04-26T03:27:01;1.90;36.50
24224;DHT22;12359;49.716;9.212;2023-04-26T03:29:27;1.90;37.50
24224;DHT22;12359;49.716;9.212;2023-04-26T03:31:52;1.90;38.90
24224;DHT22;12359;49.716;9.212;2023-04-26T03:34:18;1.90;40.90
24224;DHT22;12359;49.716;9.212;2023-04-26T03:36:44;1.90;42.30
24224;DHT22;12359;49.716;9.212;2023-04-26T03:39:09;1.80;44.80
24224;DHT22;12359;49.716;9.212;2023-04-26T03:41:35;1.80;47.30
24224;DHT22;12359;49.716;9.212;2023-04-26T03:44:03;1.80;47.90
24224;DHT22;12359;49.716;9.212;2023-04-26T03:46:29;1.80;45.40
24224;DHT22;12359;49.716;9.212;2023-04-26T03:48:55;1.70;43.30
24224;DHT22;12359;49.716;9.212;2023-04-26T03:51:20;1.70;44.30
24224;DHT22;12359;49.716;9.212;2023-04-26T03:53:46;1.60;42.10
24224;DHT22;12359;49.716;9.212;2023-04-26T03:56:13;1.60;43.70
24224;DHT22;12359;49.716;9.212;2023-04-26T03:58:39;1.60;45.00
24224;DHT22;12359;49.716;9.212;2023-04-26T04:01:04;1.60;45.70
24224;DHT22;12359;49.716;9.212;2023-04-26T04:03:30;1.60;45.20
24224;DHT22;12359;49.716;9.212;2023-04-26T04:05:56;1.70;45.80
24224;DHT22;12359;49.716;9.212;2023-04-26T04:08:21;1.60;42.80
24224;DHT22;12359;49.716;9.212;2023-04-26T04:10:47;1.60;42.90
24224;DHT22;12359;49.716;9.212;2023-04-26T04:13:13;1.60;44.60
24224;DHT22;12359;49.716;9.212;2023-04-26T04:15:38;1.60;45.90
24224;DHT22;12359;49.716;9.212;2023-04-26T04:18:04;1.60;46.70
24224;DHT22;12359;49.716;9.212;2023-04-26T04:20:30;1.60;47.40
24224;DHT22;12359;49.716;9.212;2023-04-26T04:22:55;1.60;48.10
24224;DHT22;12359;49.716;9.212;2023-04-26T04:25:23;1.60;49.30
24224;DHT22;12359;49.716;9.212;2023-04-26T04:27:49;1.60;49.60
24224;DHT22;12359;49.716;9.212;2023-04-26T04:30:16;1.60;47.60
24224;DHT22;12359;49.716;9.212;2023-04-26T04:32:42;1.60;47.90
24224;DHT22;12359;49.716;9.212;2023-04-26T04:35:09;1.70;48.00
24224;DHT22;12359;49.716;9.212;2023-04-26T04:37:35;1.70;49.60
24224;DHT22;12359;49.716;9.212;2023-04-26T04:40:01;1.70;49.60
24224;DHT22;12359;49.716;9.212;2023-04-26T04:42:26;1.70;49.10
24224;DHT22;12359;49.716;9.212;2023-04-26T04:44:53;1.80;48.90
24224;DHT22;12359;49.716;9.212;2023-04-26T04:47:19;1.80;48.60
24224;DHT22;12359;49.716;9.212;2023-04-26T04:49:45;1.80;48.90
24224;DHT22;12359;49.716;9.212;2023-04-26T04:52:11;2.00;49.10
24224;DHT22;12359;49.716;9.212;2023-04-26T04:54:37;2.20;46.40
24224;DHT22;12359;49.716;9.212;2023-04-26T04:57:03;2.30;36.00
24224;DHT22;12359;49.716;9.212;2023-04-26T04:59:29;2.40;32.60
24224;DHT22;12359;49.716;9.212;2023-04-26T05:01:55;2.50;30.60
24224;DHT22;12359;49.716;9.212;2023-04-26T05:04:20;2.60;31.20
24224;DHT22;12359;49.716;9.212;2023-04-26T05:06:46;2.80;32.40
24224;DHT22;12359;49.716;9.212;2023-04-26T05:09:12;2.90;25.00
24224;DHT22;12359;49.716;9.212;2023-04-26T05:11:37;3.10;19.30
24224;DHT22;12359;49.716;9.212;2023-04-26T05:14:03;3.30;4.50
24224;DHT22;12359;49.716;9.212;2023-04-26T05:16:29;3.50;1.00
24224;DHT22;12359;49.716;9.212;2023-04-26T05:18:55;3.70;1.00
24224;DHT22;12359;49.716;9.212;2023-04-26T05:21:21;3.60;1.00
24224;DHT22;12359;49.716;9.212;2023-04-26T05:23:47;3.60;1.00
24224;DHT22;12359;49.716;9.212;2023-04-26T05:26:14;3.60;1.00
24224;DHT22;12359;49.716;9.212;2023-04-26T05:28:41;3.40;1.00
24224;DHT22;12359;49.716;9.212;2023-04-26T05:31:08;3.30;1.00
24224;DHT22;12359;49.716;9.212;2023-04-26T05:33:33;3.20;1.00
24224;DHT22;12359;49.716;9.212;2023-04-26T05:35:59;3.10;1.00
24224;DHT22;12359;49.716;9.212;2023-04-26T05:38:26;3.00;6.70
24224;DHT22;12359;49.716;9.212;2023-04-26T05:40:51;2.90;14.70
24224;DHT22;12359;49.716;9.212;2023-04-26T05:43:17;2.90;11.70
24224;DHT22;12359;49.716;9.212;2023-04-26T05:45:55;3.00;10.20
24224;DHT22;12359;49.716;9.212;2023-04-26T05:48:22;3.10;16.80
24224;DHT22;12359;49.716;9.212;2023-04-26T05:50:49;3.20;18.90
24224;DHT22;12359;49.716;9.212;2023-04-26T05:53:16;3.30;11.50
24224;DHT22;12359;49.716;9.212;2023-04-26T05:55:42;3.40;16.80
24224;DHT22;12359;49.716;9.212;2023-04-26T05:58:08;3.50;9.80
24224;DHT22;12359;49.716;9.212;2023-04-26T06:00:34;3.70;1.40
24224;DHT22;12359;49.716;9.212;2023-04-26T06:03:00;3.90;1.00
24224;DHT22;12359;49.716;9.212;2023-04-26T06:05:26;4.50;1.00
24224;DHT22;12359;49.716;9.212;2023-04-26T06:07:52;5.00;1.00
24224;DHT22;12359;49.716;9.212;2023-04-26T06:10:18;5.70;1.00
24224;DHT22;12359;49.716;9.212;2023-04-26T06:12:44;6.40;1.00
24224;DHT22;12359;49.716;9.212;2023-04-26T06:15:11;7.50;99.90
24224;DHT22;12359;49.716;9.212;2023-04-26T06:17:36;8.80;99.90
24224;DHT22;12359;49.716;9.212;2023-04-26T06:20:02;9.90;1.00
24224;DHT22;12359;49.716;9.212;2023-04-26T06:22:29;11.00;99.90
24224;DHT22;12359;49.716;9.212;2023-04-26T06:24:55;11.30;72.50
24224;DHT22;12359;49.716;9.212;2023-04-26T06:27:21;11.00;1.00
24224;DHT22;12359;49.716;9.212;2023-04-26T06:29:47;11.50;1.00
24224;DHT22;12359;49.716;9.212;2023-04-26T06:32:12;11.40;1.00
24224;DHT22;12359;49.716;9.212;2023-04-26T06:34:38;11.80;1.00
24224;DHT22;12359;49.716;9.212;2023-04-26T06:37:04;12.50;99.90
24224;DHT22;12359;49.716;9.212;2023-04-26T06:39:30;12.60;99.90
24224;DHT22;12359;49.716;9.212;2023-04-26T06:41:56;13.20;99.90
24224;DHT22;12359;49.716;9.212;2023-04-26T06:44:22;13.80;99.90
24224;DHT22;12359;49.716;9.212;2023-04-26T06:46:47;14.30;99.90
24224;DHT22;12359;49.716;9.212;2023-04-26T06:49:14;14.10;72.60
24224;DHT22;12359;49.716;9.212;2023-04-26T06:51:40;15.00;49.60
24224;DHT22;12359;49.716;9.212;2023-04-26T06:54:06;15.60;26.80
24224;DHT22;12359;49.716;9.212;2023-04-26T06:56:31;16.00;2.60
24224;DHT22;12359;49.716;9.212;2023-04-26T07:01:24;16.60;1.00
24224;DHT22;12359;49.716;9.212;2023-04-26T07:03:50;17.00;1.00
24224;DHT22;12359;49.716;9.212;2023-04-26T07:06:16;17.00;1.00
24224;DHT22;12359;49.716;9.212;2023-04-26T07:08:41;17.60;1.00
24224;DHT22;12359;49.716;9.212;2023-04-26T07:11:11;17.70;1.00
24224;DHT22;12359;49.716;9.212;2023-04-26T07:13:37;17.40;1.00
24224;DHT22;12359;49.716;9.212;2023-04-26T07:16:03;17.90;1.00
24224;DHT22;12359;49.716;9.212;2023-04-26T07:18:29;17.70;1.00
24224;DHT22;12359;49.716;9.212;2023-04-26T07:20:55;17.90;1.00
24224;DHT22;12359;49.716;9.212;2023-04-26T07:23:22;18.00;1.00
24224;DHT22;12359;49.716;9.212;2023-04-26T07:25:47;18.40;1.00
24224;DHT22;12359;49.716;9.212;2023-04-26T07:28:13;18.60;1.00
24224;DHT22;12359;49.716;9.212;2023-04-26T07:30:39;18.70;1.00
24224;DHT22;12359;49.716;9.212;2023-04-26T07:33:05;19.10;1.00
24224;DHT22;12359;49.716;9.212;2023-04-26T07:37:59;20.10;1.00
24224;DHT22;12359;49.716;9.212;2023-04-26T07:40:24;19.70;1.00
24224;DHT22;12359;49.716;9.212;2023-04-26T07:42:51;19.70;1.00
24224;DHT22;12359;49.716;9.212;2023-04-26T07:45:17;19.50;1.00
24224;DHT22;12359;49.716;9.212;2023-04-26T07:47:44;19.60;1.00
24224;DHT22;12359;49.716;9.212;2023-04-26T07:50:10;19.20;1.00
24224;DHT22;12359;49.716;9.212;2023-04-26T07:52:36;19.30;1.00
24224;DHT22;12359;49.716;9.212;2023-04-26T07:55:02;18.90;1.00
24224;DHT22;12359;49.716;9.212;2023-04-26T07:57:28;18.30;1.00
24224;DHT22;12359;49.716;9.212;2023-04-26T07:59:54;18.30;1.00
24224;DHT22;12359;49.716;9.212;2023-04-26T08:02:20;17.90;1.00
24224;DHT22;12359;49.716;9.212;2023-04-26T08:04:49;17.80;1.00
24224;DHT22;12359;49.716;9.212;2023-04-26T08:07:19;17.90;1.00
24224;DHT22;12359;49.716;9.212;2023-04-26T08:09:46;18.20;1.00
24224;DHT22;12359;49.716;9.212;2023-04-26T08:12:12;18.50;1.00
24224;DHT22;12359;49.716;9.212;2023-04-26T08:14:38;18.50;1.00
24224;DHT22;12359;49.716;9.212;2023-04-26T08:17:04;18.40;1.00
24224;DHT22;12359;49.716;9.212;2023-04-26T08:19:30;18.40;1.00
24224;DHT22;12359;49.716;9.212;2023-04-26T08:21:57;18.70;1.00
24224;DHT22;12359;49.716;9.212;2023-04-26T08:24:23;18.80;1.00
24224;DHT22;12359;49.716;9.212;2023-04-26T08:26:49;18.60;1.00
24224;DHT22;12359;49.716;9.212;2023-04-26T08:29:15;18.70;1.00
24224;DHT22;12359;49.716;9.212;2023-04-26T08:31:41;18.50;1.00
24224;DHT22;12359;49.716;9.212;2023-04-26T08:34:07;18.40;1.00
24224;DHT22;12359;49.716;9.212;2023-04-26T08:36:36;18.90;1.00
24224;DHT22;12359;49.716;9.212;2023-04-26T08:39:02;19.30;1.00
24224;DHT22;12359;49.716;9.212;2023-04-26T08:41:33;18.90;1.00
24224;DHT22;12359;49.716;9.212;2023-04-26T08:44:01;17.60;1.00
24224;DHT22;12359;49.716;9.212;2023-04-26T08:47:15;16.70;1.00
24224;DHT22;12359;49.716;9.212;2023-04-26T08:49:33;16.00;1.00
24224;DHT22;12359;49.716;9.212;2023-04-26T08:52:03;15.20;1.00
24224;DHT22;12359;49.716;9.212;2023-04-26T08:54:34;14.70;1.00
24224;DHT22;12359;49.716;9.212;2023-04-26T08:57:01;14.40;1.00
24224;DHT22;12359;49.716;9.212;2023-04-26T08:59:29;14.00;1.00
24224;DHT22;12359;49.716;9.212;2023-04-26T09:01:56;13.60;1.00
24224;DHT22;12359;49.716;9.212;2023-04-26T09:04:22;14.10;1.00
24224;DHT22;12359;49.716;9.212;2023-04-26T09:06:49;14.70;1.00
24224;DHT22;12359;49.716;9.212;2023-04-26T09:09:18;15.50;1.00
24224;DHT22;12359;49.716;9.212;2023-04-26T09:11:56;16.40;1.00
24224;DHT22;12359;49.716;9.212;2023-04-26T09:14:22;17.20;1.00
24224;DHT22;12359;49.716;9.212;2023-04-26T09:16:48;17.70;1.00
24224;DHT22;12359;49.716;9.212;2023-04-26T09:19:14;18.50;1.00
24224;DHT22;12359;49.716;9.212;2023-04-26T09:21:44;18.90;1.00
24224;DHT22;12359;49.716;9.212;2023-04-26T09:24:11;19.60;1.00
24224;DHT22;12359;49.716;9.212;2023-04-26T09:26:37;19.30;1.00
24224;DHT22;12359;49.716;9.212;2023-04-26T09:29:16;18.20;1.00
24224;DHT22;12359;49.716;9.212;2023-04-26T09:31:47;17.60;1.00
24224;DHT22;12359;49.716;9.212;2023-04-26T09:34:13;17.30;1.00
24224;DHT22;12359;49.716;9.212;2023-04-26T09:36:53;16.80;1.00
24224;DHT22;12359;49.716;9.212;2023-04-26T09:39:38;16.40;1.00
24224;DHT22;12359;49.716;9.212;2023-04-26T09:42:08;15.80;1.00
24224;DHT22;12359;49.716;9.212;2023-04-26T09:44:35;15.30;1.00
24224;DHT22;12359;49.716;9.212;2023-04-26T09:47:08;14.80;1.00
24224;DHT22;12359;49.716;9.212;2023-04-26T09:52:13;14.80;1.00
24224;DHT22;12359;49.716;9.212;2023-04-26T09:54:50;14.90;1.00
24224;DHT22;12359;49.716;9.212;2023-04-26T09:57:20;14.90;1.00
24224;DHT22;12359;49.716;9.212;2023-04-26T09:59:51;14.80;1.00
24224;DHT22;12359;49.716;9.212;2023-04-26T10:02:25;15.10;1.00
24224;DHT22;12359;49.716;9.212;2023-04-26T10:04:53;15.40;1.00
24224;DHT22;12359;49.716;9.212;2023-04-26T10:07:21;15.60;1.00
24224;DHT22;12359;49.716;9.212;2023-04-26T10:09:48;15.70;1.00
24224;DHT22;12359;49.716;9.212;2023-04-26T10:12:18;16.20;1.00
24224;DHT22;12359;49.716;9.212;2023-04-26T10:14:45;16.50;1.00
24224;DHT22;12359;49.716;9.212;2023-04-26T10:17:12;16.40;1.00
24224;DHT22;12359;49.716;9.212;2023-04-26T10:19:42;16.20;1.00
24224;DHT22;12359;49.716;9.212;2023-04-26T10:22:13;16.20;1.00
24224;DHT22;12359;49.716;9.212;2023-04-26T10:24:42;15.90;1.00
24224;DHT22;12359;49.716;9.212;2023-04-26T10:27:08;16.00;1.00
24224;DHT22;12359;49.716;9.212;2023-04-26T10:32:21;16.50;1.00
24224;DHT22;12359;49.716;9.212;2023-04-26T10:35:13;17.20;1.00
24224;DHT22;12359;49.716;9.212;2023-04-26T10:45:42;17.00;1.00
24224;DHT22;12359;49.716;9.212;2023-04-26T10:53:30;17.10;1.00
24224;DHT22;12359;49.716;9.212;2023-04-26T10:55:57;17.00;1.00
24224;DHT22;12359;49.716;9.212;2023-04-26T11:03:42;16.70;1.00
24224;DHT22;12359;49.716;9.212;2023-04-26T11:06:09;16.40;1.00
24224;DHT22;12359;49.716;9.212;2023-04-26T11:08:38;16.30;1.00
24224;DHT22;12359;49.716;9.212;2023-04-26T11:13:30;16.00;1.00
24224;DHT22;12359;49.716;9.212;2023-04-26T11:16:03;15.90;1.00
24224;DHT22;12359;49.716;9.212;2023-04-26T11:18:30;15.70;1.00
24224;DHT22;12359;49.716;9.212;2023-04-26T11:21:00;15.40;1.00
24224;DHT22;12359;49.716;9.212;2023-04-26T11:23:27;15.60;1.00
24224;DHT22;12359;49.716;9.212;2023-04-26T11:25:56;15.60;1.00
24224;DHT22;12359;49.716;9.212;2023-04-26T11:28:22;15.80;1.00
24224;DHT22;12359;49.716;9.212;2023-04-26T11:30:48;15.70;1.00
24224;DHT22;12359;49.716;9.212;2023-04-26T11:33:19;15.80;1.00
24224;DHT22;12359;49.716;9.212;2023-04-26T11:35:46;16.10;1.00
24224;DHT22;12359;49.716;9.212;2023-04-26T11:38:12;16.50;1.00
24224;DHT22;12359;49.716;9.212;2023-04-26T11:40:40;16.60;1.00
24224;DHT22;12359;49.716;9.212;2023-04-26T11:43:07;16.50;1.00
24224;DHT22;12359;49.716;9.212;2023-04-26T11:45:35;16.60;1.00
24224;DHT22;12359;49.716;9.212;2023-04-26T11:48:06;16.40;1.00
24224;DHT22;12359;49.716;9.212;2023-04-26T11:50:35;16.20;1.00
24224;DHT22;12359;49.716;9.212;2023-04-26T11:53:03;16.50;1.00
24224;DHT22;12359;49.716;9.212;2023-04-26T11:55:30;16.60;1.00
24224;DHT22;12359;49.716;9.212;2023-04-26T11:57:58;16.80;1.00
24224;DHT22;12359;49.716;9.212;2023-04-26T12:00:24;17.20;1.00
24224;DHT22;12359;49.716;9.212;2023-04-26T12:02:50;17.20;1.00
24224;DHT22;12359;49.716;9.212;2023-04-26T12:05:24;17.70;1.00
24224;DHT22;12359;49.716;9.212;2023-04-26T12:07:58;18.10;1.00
24224;DHT22;12359;49.716;9.212;2023-04-26T12:10:25;17.80;1.00
24224;DHT22;12359;49.716;9.212;2023-04-26T12:12:52;17.60;1.00
24224;DHT22;12359;49.716;9.212;2023-04-26T12:15:22;17.30;1.00
24224;DHT22;12359;49.716;9.212;2023-04-26T12:17:58;17.10;1.00
24224;DHT22;12359;49.716;9.212;2023-04-26T12:20:29;17.10;1.00
24224;DHT22;12359;49.716;9.212;2023-04-26T12:23:05;16.80;1.00
24224;DHT22;12359;49.716;9.212;2023-04-26T12:25:34;16.70;1.00
24224;DHT22;12359;49.716;9.212;2023-04-26T12:28:02;16.60;1.00
24224;DHT22;12359;49.716;9.212;2023-04-26T12:30:28;16.60;1.00
24224;DHT22;12359;49.716;9.212;2023-04-26T12:32:54;16.60;1.00
24224;DHT22;12359;49.716;9.212;2023-04-26T12:35:21;16.80;1.00
24224;DHT22;12359;49.716;9.212;2023-04-26T12:37:48;16.40;1.00
24224;DHT22;12359;49.716;9.212;2023-04-26T12:40:14;16.50;1.00
24224;DHT22;12359;49.716;9.212;2023-04-26T12:42:40;16.70;1.00
24224;DHT22;12359;49.716;9.212;2023-04-26T12:45:06;16.50;1.00
24224;DHT22;12359;49.716;9.212;2023-04-26T12:47:32;16.60;1.00
24224;DHT22;12359;49.716;9.212;2023-04-26T12:49:58;16.70;1.00
24224;DHT22;12359;49.716;9.212;2023-04-26T12:52:26;16.90;1.00
24224;DHT22;12359;49.716;9.212;2023-04-26T12:54:52;16.70;1.00
24224;DHT22;12359;49.716;9.212;2023-04-26T12:57:18;16.30;1.00
24224;DHT22;12359;49.716;9.212;2023-04-26T12:59:45;16.20;1.00
24224;DHT22;12359;49.716;9.212;2023-04-26T13:02:11;16.50;1.00
24224;DHT22;12359;49.716;9.212;2023-04-26T13:04:37;16.60;1.00
24224;DHT22;12359;49.716;9.212;2023-04-26T13:07:03;16.60;1.00
24224;DHT22;12359;49.716;9.212;2023-04-26T13:09:29;16.70;1.00
24224;DHT22;12359;49.716;9.212;2023-04-26T13:11:54;16.70;1.00
24224;DHT22;12359;49.716;9.212;2023-04-26T13:14:20;16.50;1.00
24224;DHT22;12359;49.716;9.212;2023-04-26T13:16:48;16.50;1.00
24224;DHT22;12359;49.716;9.212;2023-04-26T13:19:13;16.20;1.00
24224;DHT22;12359;49.716;9.212;2023-04-26T13:21:39;16.40;1.00
24224;DHT22;12359;49.716;9.212;2023-04-26T13:24:06;16.50;1.00
24224;DHT22;12359;49.716;9.212;2023-04-26T13:26:32;16.70;1.00
24224;DHT22;12359;49.716;9.212;2023-04-26T13:28:58;16.40;1.00
24224;DHT22;12359;49.716;9.212;2023-04-26T13:31:24;16.10;1.00
24224;DHT22;12359;49.716;9.212;2023-04-26T13:33:50;15.80;1.00
24224;DHT22;12359;49.716;9.212;2023-04-26T13:36:16;15.60;1.00
24224;DHT22;12359;49.716;9.212;2023-04-26T13:38:42;15.50;1.00
24224;DHT22;12359;49.716;9.212;2023-04-26T13:41:09;15.40;1.00
24224;DHT22;12359;49.716;9.212;2023-04-26T13:43:35;15.40;1.00
24224;DHT22;12359;49.716;9.212;2023-04-26T13:46:01;15.40;1.00
24224;DHT22;12359;49.716;9.212;2023-04-26T13:48:27;15.70;1.00
24224;DHT22;12359;49.716;9.212;2023-04-26T13:50:53;15.90;1.00
24224;DHT22;12359;49.716;9.212;2023-04-26T13:53:20;15.90;1.00
24224;DHT22;12359;49.716;9.212;2023-04-26T13:55:47;15.80;1.00
24224;DHT22;12359;49.716;9.212;2023-04-26T13:58:12;15.80;1.00
24224;DHT22;12359;49.716;9.212;2023-04-26T14:00:38;16.10;1.00
24224;DHT22;12359;49.716;9.212;2023-04-26T14:03:04;16.30;1.00
24224;DHT22;12359;49.716;9.212;2023-04-26T14:05:29;16.20;1.00
24224;DHT22;12359;49.716;9.212;2023-04-26T14:07:55;16.30;1.00
24224;DHT22;12359;49.716;9.212;2023-04-26T14:10:21;16.20;1.00
24224;DHT22;12359;49.716;9.212;2023-04-26T14:12:47;16.20;1.00
24224;DHT22;12359;49.716;9.212;2023-04-26T14:15:13;16.40;1.00
24224;DHT22;12359;49.716;9.212;2023-04-26T14:17:39;16.60;1.00
24224;DHT22;12359;49.716;9.212;2023-04-26T14:20:05;16.20;1.00
24224;DHT22;12359;49.716;9.212;2023-04-26T14:22:32;16.10;1.00
24224;DHT22;12359;49.716;9.212;2023-04-26T14:24:58;16.30;1.00
24224;DHT22;12359;49.716;9.212;2023-04-26T14:27:24;16.30;1.00
24224;DHT22;12359;49.716;9.212;2023-04-26T14:29:50;16.40;1.00
24224;DHT22;12359;49.716;9.212;2023-04-26T14:32:15;16.40;1.00
24224;DHT22;12359;49.716;9.212;2023-04-26T14:34:41;16.30;1.00
24224;DHT22;12359;49.716;9.212;2023-04-26T14:37:07;16.40;1.00
24224;DHT22;12359;49.716;9.212;2023-04-26T14:39:33;16.20;1.00
24224;DHT22;12359;49.716;9.212;2023-04-26T14:41:59;16.20;1.00
24224;DHT22;12359;49.716;9.212;2023-04-26T14:44:25;16.10;1.00
24224;DHT22;12359;49.716;9.212;2023-04-26T14:46:51;16.10;1.00
24224;DHT22;12359;49.716;9.212;2023-04-26T14:49:17;16.10;1.00
24224;DHT22;12359;49.716;9.212;2023-04-26T14:51:43;16.10;1.00
24224;DHT22;12359;49.716;9.212;2023-04-26T14:54:09;16.10;1.00
24224;DHT22;12359;49.716;9.212;2023-04-26T14:56:35;16.00;1.00
24224;DHT22;12359;49.716;9.212;2023-04-26T14:59:02;15.80;1.00
24224;DHT22;12359;49.716;9.212;2023-04-26T15:01:29;15.80;1.00
24224;DHT22;12359;49.716;9.212;2023-04-26T15:03:55;15.70;1.00
24224;DHT22;12359;49.716;9.212;2023-04-26T15:06:21;15.50;1.00
24224;DHT22;12359;49.716;9.212;2023-04-26T15:08:47;15.50;1.00
24224;DHT22;12359;49.716;9.212;2023-04-26T15:11:12;15.40;1.00
24224;DHT22;12359;49.716;9.212;2023-04-26T15:13:38;15.30;1.00
24224;DHT22;12359;49.716;9.212;2023-04-26T15:16:04;15.20;1.00
24224;DHT22;12359;49.716;9.212;2023-04-26T15:18:31;15.10;1.00
24224;DHT22;12359;49.716;9.212;2023-04-26T15:20:57;15.10;1.00
24224;DHT22;12359;49.716;9.212;2023-04-26T15:23:23;15.10;1.00
24224;DHT22;12359;49.716;9.212;2023-04-26T15:25:49;15.10;1.00
24224;DHT22;12359;49.716;9.212;2023-04-26T15:28:15;15.10;1.00
24224;DHT22;12359;49.716;9.212;2023-04-26T15:30:41;15.10;1.00
24224;DHT22;12359;49.716;9.212;2023-04-26T15:33:07;15.00;1.00
24224;DHT22;12359;49.716;9.212;2023-04-26T15:35:34;14.80;1.00
24224;DHT22;12359;49.716;9.212;2023-04-26T15:37:59;14.80;1.00
24224;DHT22;12359;49.716;9.212;2023-04-26T15:40:25;14.80;1.00
24224;DHT22;12359;49.716;9.212;2023-04-26T15:42:52;14.80;1.00
24224;DHT22;12359;49.716;9.212;2023-04-26T15:45:18;14.80;1.00
24224;DHT22;12359;49.716;9.212;2023-04-26T15:47:44;14.80;1.00
24224;DHT22;12359;49.716;9.212;2023-04-26T15:50:10;14.80;1.00
24224;DHT22;12359;49.716;9.212;2023-04-26T15:52:36;14.70;1.00
24224;DHT22;12359;49.716;9.212;2023-04-26T15:55:03;14.80;1.00
24224;DHT22;12359;49.716;9.212;2023-04-26T15:57:32;14.80;1.00
24224;DHT22;12359;49.716;9.212;2023-04-26T15:59:59;15.00;1.00
24224;DHT22;12359;49.716;9.212;2023-04-26T16:02:25;15.10;1.00
24224;DHT22;12359;49.716;9.212;2023-04-26T16:04:51;15.20;1.00
24224;DHT22;12359;49.716;9.212;2023-04-26T16:07:17;15.20;1.00
24224;DHT22;12359;49.716;9.212;2023-04-26T16:09:43;15.10;1.00
24224;DHT22;12359;49.716;9.212;2023-04-26T16:12:09;15.00;1.00
24224;DHT22;12359;49.716;9.212;2023-04-26T16:14:35;14.80;1.00
24224;DHT22;12359;49.716;9.212;2023-04-26T16:17:01;14.70;1.00